createdAt,value
2023-03-20T00:03:29.837Z,3.53
2023-03-20T00:07:32.240Z,4.78
2023-03-20T00:11:37.046Z,4.97
2023-03-20T00:15:43.054Z,5.22
2023-03-20T00:19:45.215Z,4.57
2023-03-20T00:23:47.776Z,4.32
2023-03-20T00:27:50.555Z,3.53
2023-03-20T00:31:53.966Z,3.50
2023-03-20T00:35:56.492Z,3.83
2023-03-20T00:39:58.541Z,3.60
2023-03-20T00:44:23.792Z,3.83
2023-03-20T00:48:26.544Z,3.40
2023-03-20T00:52:28.576Z,3.50
2023-03-20T00:56:34.871Z,3.45
2023-03-20T01:00:40.369Z,3.70
2023-03-20T01:04:42.613Z,3.30
2023-03-20T01:08:44.918Z,3.28
2023-03-20T01:12:47.692Z,3.42
2023-03-20T01:16:49.754Z,3.15
2023-03-20T01:20:53.038Z,3.40
2023-03-20T01:24:55.190Z,3.20
2023-03-20T01:28:57.553Z,4.00
2023-03-20T01:33:03.012Z,3.72
2023-03-20T01:37:11.462Z,4.65
2023-03-20T01:41:19.066Z,5.07
2023-03-20T01:49:24.680Z,6.25
2023-03-20T01:53:29.670Z,7.03
2023-03-20T01:57:37.482Z,8.65
2023-03-20T02:01:41.671Z,10.30
2023-03-20T02:05:44.839Z,10.98
2023-03-20T02:09:48.882Z,11.63
2023-03-20T02:13:59.597Z,12.35
2023-03-20T02:18:05.803Z,13.75
2023-03-20T02:22:26.821Z,14.38
2023-03-20T02:26:50.946Z,15.90
2023-03-20T02:31:06.030Z,23.33
2023-03-20T02:35:47.844Z,23.25
2023-03-20T02:40:36.061Z,16.63
2023-03-20T02:44:51.880Z,16.92
2023-03-20T02:49:02.615Z,16.33
2023-03-20T02:53:31.484Z,16.45
2023-03-20T02:57:58.408Z,16.92
2023-03-20T03:02:08.926Z,18.90
2023-03-20T03:06:26.758Z,18.98
2023-03-20T03:10:46.371Z,19.75
2023-03-20T03:14:52.774Z,17.85
2023-03-20T03:19:09.302Z,19.00
2023-03-20T03:23:22.591Z,19.80
2023-03-20T03:27:34.186Z,19.80
2023-03-20T03:31:38.125Z,21.85
2023-03-20T03:35:41.564Z,23.10
2023-03-20T03:39:52.047Z,24.55
2023-03-20T03:44:06.915Z,23.17
2023-03-20T03:48:18.622Z,24.23
2023-03-20T03:52:24.662Z,25.88
2023-03-20T03:56:29.950Z,24.95
2023-03-20T04:00:33.954Z,26.48
2023-03-20T04:04:38.943Z,26.33
2023-03-20T04:08:41.791Z,22.98
2023-03-20T04:12:45.324Z,23.42
2023-03-20T04:16:47.765Z,22.00
2023-03-20T04:20:49.885Z,22.92
2023-03-20T04:24:52.634Z,21.83
2023-03-20T04:28:55.314Z,22.85
2023-03-20T04:33:18.690Z,22.85
2023-03-20T04:37:49.827Z,22.40
2023-03-20T04:41:52.504Z,23.48
2023-03-20T04:45:54.694Z,25.23
2023-03-20T04:49:56.952Z,24.23
2023-03-20T04:53:59.035Z,23.77
2023-03-20T04:58:01.284Z,27.25
2023-03-20T05:02:04.829Z,24.60
2023-03-20T05:06:08.065Z,22.88
2023-03-20T05:10:11.887Z,23.83
2023-03-20T05:14:22.005Z,24.40
2023-03-20T05:18:42.804Z,22.48
2023-03-20T05:22:59.891Z,21.33
2023-03-20T05:27:25.338Z,22.15
2023-03-20T05:31:39.707Z,22.83
2023-03-20T05:36:03.979Z,22.73
2023-03-20T05:40:29.534Z,20.13
2023-03-20T05:44:50.113Z,22.90
2023-03-20T05:48:52.146Z,21.40
2023-03-20T05:53:26.259Z,22.15
2023-03-20T05:57:46.388Z,21.23
2023-03-20T06:06:09.879Z,20.55
2023-03-20T06:10:12.419Z,19.15
2023-03-20T06:14:14.498Z,19.92
2023-03-20T06:18:19.210Z,19.63
2023-03-20T06:22:21.472Z,19.50
2023-03-20T06:26:23.681Z,20.55
2023-03-20T06:30:35.761Z,19.85
2023-03-20T06:34:38.423Z,19.75
2023-03-20T06:38:40.686Z,20.08
2023-03-20T06:42:47.908Z,20.88
2023-03-20T06:46:52.053Z,20.13
2023-03-20T06:50:54.785Z,20.00
2023-03-20T06:55:01.589Z,18.90
2023-03-20T06:59:03.600Z,20.38
2023-03-20T07:03:06.147Z,21.33
2023-03-20T07:07:09.470Z,18.50
2023-03-20T07:11:11.651Z,18.60
2023-03-20T07:15:14.097Z,18.52
2023-03-20T07:19:16.375Z,18.42
2023-03-20T07:23:21.781Z,12.68
2023-03-20T07:27:24.059Z,17.75
2023-03-20T07:31:31.234Z,18.30
2023-03-20T07:35:56.519Z,17.63
2023-03-20T07:39:58.928Z,17.85
2023-03-20T07:44:19.351Z,18.23
2023-03-20T07:48:31.040Z,17.10
2023-03-20T07:52:33.814Z,16.73
2023-03-20T07:56:35.894Z,16.90
2023-03-20T08:00:37.973Z,16.27
2023-03-20T08:04:40.173Z,16.92
2023-03-20T08:08:42.891Z,16.38
2023-03-20T08:12:45.213Z,15.68
2023-03-20T08:16:49.344Z,15.93
2023-03-20T08:20:54.132Z,15.68
2023-03-20T08:24:56.362Z,16.45
2023-03-20T08:28:59.587Z,16.70
2023-03-20T08:33:02.108Z,16.23
2023-03-20T08:37:05.001Z,17.50
2023-03-20T08:41:07.831Z,16.58
2023-03-20T08:45:11.137Z,15.90
2023-03-20T08:49:13.691Z,16.30
2023-03-20T08:53:15.796Z,15.57
2023-03-20T08:57:17.823Z,15.05
2023-03-20T09:01:19.866Z,13.82
2023-03-20T09:05:21.944Z,12.65
2023-03-20T09:09:29.249Z,12.90
2023-03-20T09:17:33.317Z,13.20
2023-03-20T09:21:35.330Z,7.85
2023-03-20T09:25:37.591Z,7.57
2023-03-20T09:29:40.958Z,7.95
2023-03-20T09:33:43.032Z,9.20
2023-03-20T09:37:45.315Z,8.75
2023-03-20T09:41:57.128Z,8.00
2023-03-20T09:46:26.779Z,7.85
2023-03-20T09:50:38.007Z,6.47
2023-03-20T09:54:53.955Z,7.70
2023-03-20T09:58:59.406Z,6.63
2023-03-20T10:03:04.622Z,6.43
2023-03-20T10:07:07.001Z,6.93
2023-03-20T10:11:44.952Z,6.55
2023-03-20T10:15:52.912Z,7.38
2023-03-20T10:20:04.178Z,6.25
2023-03-20T10:24:15.796Z,6.50
2023-03-20T10:28:25.052Z,7.25
2023-03-20T10:32:41.711Z,6.93
2023-03-20T10:36:57.897Z,6.53
2023-03-20T10:41:00.351Z,6.45
2023-03-20T10:45:12.463Z,6.10
2023-03-20T10:49:21.597Z,5.88
2023-03-20T10:53:31.314Z,5.95
2023-03-20T10:57:42.192Z,6.07
2023-03-20T11:01:44.371Z,6.10
2023-03-20T11:06:06.637Z,5.43
2023-03-20T11:10:16.785Z,5.97
2023-03-20T11:14:21.078Z,6.35
2023-03-20T11:18:26.348Z,6.38
2023-03-20T11:22:29.350Z,7.18
2023-03-20T11:26:41.980Z,6.40
2023-03-20T11:31:03.255Z,6.57
2023-03-20T11:35:17.932Z,6.20
2023-03-20T11:39:27.211Z,5.93
2023-03-20T11:43:37.146Z,5.50
2023-03-20T11:47:39.902Z,5.32
2023-03-20T11:51:41.880Z,4.75
2023-03-20T11:55:57.482Z,5.53
2023-03-20T12:00:06.390Z,4.25
2023-03-20T12:04:12.804Z,4.45
2023-03-20T12:08:23.184Z,3.13
2023-03-20T12:12:36.885Z,3.53
2023-03-20T12:16:40.377Z,2.95
2023-03-20T12:21:04.632Z,3.60
2023-03-20T12:25:21.958Z,3.10
2023-03-20T12:29:32.146Z,3.20
2023-03-20T12:33:37.141Z,2.90
2023-03-20T12:37:39.438Z,2.60
2023-03-20T12:41:49.685Z,2.45
2023-03-20T12:46:00.919Z,2.20
2023-03-20T12:50:21.787Z,2.10
2023-03-20T12:54:23.726Z,2.05
2023-03-20T12:58:32.760Z,1.65
2023-03-20T13:02:43.832Z,1.73
2023-03-20T13:06:53.309Z,1.73
2023-03-20T13:10:55.278Z,1.70
2023-03-20T13:15:23.558Z,1.60
2023-03-20T13:19:29.291Z,2.70
2023-03-20T13:23:42.415Z,1.80
2023-03-20T13:28:10.107Z,1.77
2023-03-20T13:32:39.656Z,1.80
2023-03-20T13:36:50.976Z,2.08
2023-03-20T13:41:09.675Z,1.95
2023-03-20T13:45:33.621Z,1.70
2023-03-20T13:49:38.865Z,2.08
2023-03-20T13:54:02.396Z,1.70
2023-03-20T13:58:22.842Z,1.90
2023-03-20T14:03:03.895Z,1.80
2023-03-20T14:07:28.604Z,1.92
2023-03-20T14:11:37.817Z,1.67
2023-03-20T14:15:47.638Z,1.90
2023-03-20T14:19:51.513Z,1.75
2023-03-20T14:24:06.488Z,1.60
2023-03-20T14:28:11.227Z,1.60
2023-03-20T14:32:13.186Z,1.60
2023-03-20T14:36:21.894Z,1.90
2023-03-20T14:40:29.232Z,1.90
2023-03-20T14:49:15.760Z,1.77
2023-03-20T14:53:21.035Z,1.90
2023-03-20T14:57:55.463Z,1.88
2023-03-20T15:02:03.070Z,1.58
2023-03-20T15:06:07.725Z,1.77
2023-03-20T15:10:10.292Z,1.65
2023-03-20T15:14:20.983Z,1.58
2023-03-20T15:18:25.683Z,1.30
2023-03-20T15:22:27.724Z,1.30
2023-03-20T15:26:32.947Z,1.30
2023-03-20T15:30:38.956Z,1.90
2023-03-20T15:34:43.016Z,1.80
2023-03-20T15:38:46.845Z,1.77
2023-03-20T15:42:54.462Z,1.40
2023-03-20T15:46:58.954Z,1.70
2023-03-20T15:51:05.513Z,2.10
2023-03-20T15:55:14.159Z,1.90
2023-03-20T15:59:19.110Z,1.98
2023-03-20T16:03:23.894Z,1.70
2023-03-20T16:07:33.097Z,1.75
2023-03-20T16:11:38.665Z,2.10
2023-03-20T16:15:41.000Z,1.70
2023-03-20T16:19:43.702Z,2.03
2023-03-20T16:23:49.736Z,1.60
2023-03-20T16:27:52.864Z,1.63
2023-03-20T16:32:05.381Z,1.60
2023-03-20T16:36:08.178Z,1.98
2023-03-20T16:40:28.749Z,1.67
2023-03-20T16:44:36.905Z,1.70
2023-03-20T16:48:42.506Z,2.00
2023-03-20T16:52:56.796Z,1.83
2023-03-20T16:56:59.829Z,2.60
2023-03-20T17:01:05.005Z,2.60
2023-03-20T17:05:13.154Z,3.30
2023-03-20T17:09:18.749Z,2.60
2023-03-20T17:13:21.028Z,2.92
2023-03-20T17:17:25.008Z,2.60
2023-03-20T17:21:27.259Z,2.47
2023-03-20T17:25:29.593Z,2.47
2023-03-20T17:29:31.725Z,2.75
2023-03-20T17:33:33.852Z,4.35
2023-03-20T17:37:36.011Z,2.58
2023-03-20T17:41:38.016Z,3.42
2023-03-20T17:45:40.851Z,3.60
2023-03-20T17:49:44.082Z,5.05
2023-03-20T17:53:46.113Z,2.30
2023-03-20T17:57:48.755Z,2.70
2023-03-20T18:01:50.982Z,2.17
2023-03-20T18:05:53.230Z,1.90
2023-03-20T18:09:55.529Z,2.22
2023-03-20T18:13:57.609Z,2.40
2023-03-20T18:17:59.877Z,2.65
2023-03-20T18:22:02.281Z,8.10
2023-03-20T18:26:04.699Z,3.45
2023-03-20T18:30:14.780Z,2.55
2023-03-20T18:34:16.837Z,3.72
2023-03-20T18:38:18.982Z,2.63
2023-03-20T18:42:21.250Z,2.30
2023-03-20T18:46:25.238Z,2.15
2023-03-20T18:50:40.865Z,2.30
2023-03-20T18:54:43.094Z,2.33
2023-03-20T18:58:46.341Z,2.00
2023-03-20T19:02:50.370Z,2.40
2023-03-20T19:06:52.876Z,3.40
2023-03-20T19:10:54.964Z,3.08
2023-03-20T19:14:57.110Z,2.75
2023-03-20T19:19:01.495Z,2.95
2023-03-20T19:23:05.837Z,2.97
2023-03-20T19:27:10.170Z,3.13
2023-03-20T19:31:12.758Z,2.80
2023-03-20T19:35:46.736Z,2.92
2023-03-20T19:39:37.748Z,3.70
2023-03-20T19:43:51.695Z,2.72
2023-03-20T19:47:54.768Z,6.15
2023-03-20T19:51:56.796Z,4.05
2023-03-20T19:55:58.799Z,3.40
2023-03-20T20:00:48.708Z,5.50
2023-03-20T20:04:22.829Z,3.60
2023-03-20T20:08:45.235Z,3.83
2023-03-20T20:12:48.300Z,2.40
2023-03-20T20:16:52.639Z,3.60
2023-03-20T20:22:06.314Z,6.35
2023-03-20T20:25:20.569Z,3.67
2023-03-20T20:29:24.473Z,3.30
2023-03-20T20:33:28.975Z,4.82
2023-03-20T20:41:53.987Z,4.63
2023-03-20T20:45:56.005Z,3.50
2023-03-20T20:49:58.083Z,4.00
2023-03-20T20:54:01.122Z,3.55
2023-03-20T20:58:04.195Z,3.50
2023-03-20T21:02:11.277Z,4.72
2023-03-20T21:06:13.535Z,3.38
2023-03-20T21:10:18.290Z,3.25
2023-03-20T21:14:20.399Z,2.20
2023-03-20T21:18:22.653Z,2.28
2023-03-20T21:22:25.700Z,4.72
2023-03-20T21:26:27.770Z,2.63
2023-03-20T21:30:30.371Z,4.38
2023-03-20T21:34:32.734Z,2.05
2023-03-20T21:42:57.802Z,2.20
2023-03-20T21:47:44.505Z,1.90
2023-03-20T21:56:40.202Z,2.35
2023-03-20T22:18:12.227Z,2.58
2023-03-20T22:22:42.591Z,2.53
2023-03-20T22:27:14.822Z,1.92
2023-03-20T22:31:26.838Z,1.60
2023-03-20T22:48:10.857Z,2.28
2023-03-20T22:52:29.037Z,1.80
2023-03-20T22:56:31.372Z,2.08
2023-03-20T23:00:33.551Z,2.00
2023-03-20T23:04:35.700Z,2.10
2023-03-20T23:08:48.013Z,2.15
2023-03-20T23:12:52.554Z,2.25
2023-03-20T23:16:54.662Z,2.75
2023-03-20T23:21:01.141Z,2.10
2023-03-20T23:25:13.321Z,2.00
2023-03-20T23:29:21.154Z,1.88
2023-03-20T23:33:23.315Z,2.28
2023-03-20T23:37:25.429Z,2.25
2023-03-20T23:41:49.619Z,1.80
2023-03-20T23:45:49.897Z,2.17
2023-03-20T23:49:51.966Z,1.90
2023-03-20T23:53:54.054Z,1.80
2023-03-20T23:57:56.081Z,2.17
